الصفحة الرئيسية
METAR-TAF:

METAR-TAF

مطار :

ميسا, أريزونا, الولايات المتحدة

دائرة عرض: 33-28N, خط طول: 111-44W, ارتفاع: 424 متر

مراقبة الطقس الحالي

تاريخ ووقت الإصدار 52 دقيقة قبل الساعة 16:54UTC
ريح 3 عقدةمن اتجاهات متغيرة
درجة الحرارة 12°درجة مئوية
الرطوبة 54%
ضغط 1016 hPa
الرؤية: 16.1 كم
غيوم قليلة على ارتفاع 5000 قدم

METAR: KFFZ 161654Z VRB03KT 10SM FEW050 12/03 A3001 RMK AO2 SLP150 T01170033

زمن: 10:46 (17:46 UTC)


TAF: مفقودة

أرصاد الطقس والتوقعات من أكثر من 4000 مطار (تقارير الطقس للمطار METAR والتنبؤ بالطقس بالمطارTAF).

المحطات المتاحة هي النقط الصفراء والحمراء على الخريطة.

حرك المؤشر فوق النقطة لمعرفة اسم المحطة.

ثم انقر لمعرفة أرصاد وتوقعات الطقس.

لتغيير الخارطة: اضغط على الأزرار الخضراء مع رمز الصليب الأسود للتكبير. على الزر الأخضر مع شرطة للتصغير، أو على الأسهم الخضراء للخرائط المجاورة.


METAR-TAF: